Grand Portage, Minnesota
Current Conditions -  °F | °C
As of 7:00 AM on Friday 19 Dec 2014 (Local Time) from CYQT Reporting Station
Broken Clouds Broken Clouds  
Wind Chill: -10°   Ceiling: 2600
Heat Index:   Visibility: 15mi
Dew Point: -4°   Wind: 5mph
Humidity: 85%   Direction: 270°W
Pressure: 30.33"   Gusts: NA
Location:  47.96°N, 89.68°W
Report Text: CYQT 191300Z 27004KT 15SM BKN026 M18/M20 A3033 RMK SC6 SLP290
Loading
Personal Weather Stations






























Interactive Weather Map New forecast layout! Learn more

10-Day Weather Forecast

Advertisements
Track Severe Weather on mobile